Time;durP1;ratioP1;P1;durP2;ratioP2;P2;SDS_P1;SDS_P2;PMS_P1;PMS_P2;Temp;Humidity;BMP_temperature;BMP_pressure;BME280_temperature;BME280_humidity;BME280_pressure;Samples;Min_cycle;Max_cycle;Signal;HPM_P1;HPM_P2
2021/07/01 00:01:48;;;;;;;5.00;4.50;;;14.60;99.70;;;;;;4999431;28;20611;-91
2021/07/01 00:04:14;;;;;;;9.03;4.90;;;14.60;99.90;;;;;;4988681;28;20190;-90
2021/07/01 00:06:39;;;;;;;4.50;4.10;;;14.60;99.90;;;;;;5017592;28;20192;-91
2021/07/01 00:09:06;;;;;;;5.03;4.20;;;14.50;99.90;;;;;;4985305;28;20225;-91
2021/07/01 00:11:32;;;;;;;4.13;3.83;;;14.50;99.90;;;;;;5011728;28;20201;-88
2021/07/01 00:13:58;;;;;;;4.50;4.10;;;14.40;99.90;;;;;;5005480;28;20182;-88
2021/07/01 00:16:24;;;;;;;5.30;4.80;;;14.40;99.90;;;;;;4972639;28;20225;-88
2021/07/01 00:18:50;;;;;;;4.97;4.57;;;14.50;99.90;;;;;;5006064;28;20232;-89
2021/07/01 00:21:17;;;;;;;5.43;4.67;;;14.50;99.90;;;;;;5006618;28;20635;-89
2021/07/01 00:23:44;;;;;;;5.60;4.57;;;14.50;99.90;;;;;;5006415;28;20185;-88
2021/07/01 00:26:10;;;;;;;4.67;4.13;;;14.50;99.90;;;;;;4989349;28;20233;-88
2021/07/01 00:28:35;;;;;;;4.53;4.10;;;14.60;99.90;;;;;;4989062;28;20213;-87
2021/07/01 00:31:01;;;;;;;6.13;4.50;;;14.40;99.90;;;;;;4972835;28;20197;-90
2021/07/01 00:33:27;;;;;;;5.70;5.10;;;14.50;99.90;;;;;;5006395;28;20210;-88
2021/07/01 00:35:52;;;;;;;5.10;4.60;;;14.60;99.90;;;;;;5006645;28;20193;-89
2021/07/01 00:38:18;;;;;;;4.80;4.27;;;14.60;99.90;;;;;;4989690;28;20186;-88
2021/07/01 00:40:44;;;;;;;6.07;4.93;;;14.60;99.90;;;;;;4972264;28;20291;-90
2021/07/01 00:43:09;;;;;;;4.83;4.30;;;14.60;99.90;;;;;;5005896;28;20190;-88
2021/07/01 00:45:35;;;;;;;5.33;4.70;;;14.60;99.90;;;;;;5006232;28;20190;-88
2021/07/01 00:48:01;;;;;;;6.40;4.17;;;14.60;99.90;;;;;;4989255;28;20414;-88
2021/07/01 00:50:28;;;;;;;5.30;4.50;;;14.60;99.90;;;;;;4972597;28;20202;-88
2021/07/01 00:52:54;;;;;;;4.93;4.53;;;14.70;99.90;;;;;;4988783;28;20606;-88
2021/07/01 00:55:20;;;;;;;4.87;4.40;;;14.70;99.90;;;;;;5006433;28;20191;-88
2021/07/01 00:57:45;;;;;;;5.43;4.70;;;14.60;99.90;;;;;;4972956;28;20280;-88
2021/07/01 01:02:47;;;;;;;5.07;4.27;;;14.70;99.90;;;;;;5007137;28;20234;-88
2021/07/01 01:05:13;;;;;;;5.60;4.50;;;14.70;98.90;;;;;;5006220;28;20209;-89
2021/07/01 01:07:39;;;;;;;6.93;4.37;;;14.60;99.90;;;;;;5006551;28;20241;-88
2021/07/01 01:10:06;;;;;;;5.00;4.27;;;14.70;99.90;;;;;;5006275;28;20236;-88
2021/07/01 01:12:32;;;;;;;5.67;4.43;;;14.50;99.90;;;;;;4989016;28;20182;-88
2021/07/01 01:14:57;;;;;;;6.90;4.47;;;14.60;99.90;;;;;;5007814;28;20195;-88
2021/07/01 01:17:23;;;;;;;5.33;4.60;;;14.50;99.90;;;;;;4991804;28;20194;-88
2021/07/01 01:19:49;;;;;;;5.73;4.40;;;14.50;99.90;;;;;;4991744;28;20245;-90
2021/07/01 01:22:15;;;;;;;4.40;4.00;;;14.50;99.90;;;;;;5006707;28;20182;-88
2021/07/01 01:24:40;;;;;;;4.70;4.30;;;14.50;99.90;;;;;;4973096;28;20262;-88
2021/07/01 01:27:06;;;;;;;4.57;4.07;;;14.50;99.90;;;;;;4988329;28;20304;-87
2021/07/01 01:29:32;;;;;;;7.23;4.73;;;14.50;99.90;;;;;;4988331;28;20261;-88
2021/07/01 01:31:57;;;;;;;6.63;4.57;;;14.50;99.90;;;;;;5006003;28;20193;-88
2021/07/01 01:34:23;;;;;;;4.57;4.20;;;14.50;99.90;;;;;;4988753;28;20205;-88
2021/07/01 01:36:49;;;;;;;4.77;4.33;;;14.40;99.90;;;;;;4973064;28;20236;-90
2021/07/01 01:39:18;;;;;;;4.67;4.27;;;14.30;99.90;;;;;;4988785;28;20218;-87
2021/07/01 01:41:44;;;;;;;5.27;4.83;;;14.30;99.90;;;;;;4989307;28;20239;-89
2021/07/01 01:44:09;;;;;;;4.70;4.23;;;14.40;99.90;;;;;;4988912;28;20182;-89
2021/07/01 01:46:39;;;;;;;4.97;4.17;;;14.30;99.90;;;;;;5008336;28;20221;-89
2021/07/01 01:49:07;;;;;;;5.10;4.60;;;14.30;99.90;;;;;;5025000;28;20197;-88
2021/07/01 01:51:34;;;;;;;5.43;4.30;;;14.30;99.90;;;;;;5008272;28;20642;-88
2021/07/01 01:54:00;;;;;;;4.10;3.80;;;14.30;99.90;;;;;;5007936;28;20186;-88
2021/07/01 01:56:36;;;;;;;5.07;4.50;;;14.40;99.90;;;;;;5007647;28;20225;-88
2021/07/01 01:59:05;;;;;;;5.07;4.67;;;14.30;99.90;;;;;;5007282;28;20239;-88
2021/07/01 02:01:31;;;;;;;5.97;5.07;;;14.30;99.90;;;;;;5024971;28;20185;-88
2021/07/01 02:03:58;;;;;;;7.43;5.17;;;14.20;99.90;;;;;;5007804;28;20644;-88
2021/07/01 02:06:24;;;;;;;5.47;4.93;;;14.20;99.90;;;;;;5024641;28;20300;-88
2021/07/01 02:08:49;;;;;;;5.60;5.10;;;14.30;99.90;;;;;;5007250;28;20845;-88
2021/07/01 02:11:15;;;;;;;6.37;4.87;;;14.30;99.90;;;;;;5024463;28;20183;-88
2021/07/01 02:13:41;;;;;;;5.50;5.00;;;14.40;99.90;;;;;;5025369;28;20295;-88
2021/07/01 02:16:07;;;;;;;7.20;4.87;;;14.40;99.90;;;;;;5007504;28;20181;-88
2021/07/01 02:18:33;;;;;;;5.97;5.03;;;14.40;99.90;;;;;;5007552;28;20255;-88
2021/07/01 02:20:58;;;;;;;5.43;4.93;;;14.40;99.90;;;;;;5006997;28;20255;-88
2021/07/01 02:23:24;;;;;;;5.87;5.30;;;14.50;99.90;;;;;;5007500;28;20186;-87
2021/07/01 02:25:50;;;;;;;5.90;5.30;;;14.40;99.90;;;;;;4991233;28;20237;-88
2021/07/01 02:28:15;;;;;;;5.80;5.20;;;14.30;99.90;;;;;;5008018;28;20867;-89
2021/07/01 02:30:41;;;;;;;5.87;5.27;;;14.50;99.90;;;;;;4991578;28;20190;-88
2021/07/01 02:33:07;;;;;;;6.00;5.40;;;14.50;99.90;;;;;;5026069;28;20227;-88
2021/07/01 02:35:33;;;;;;;5.63;5.13;;;14.40;99.90;;;;;;5007913;28;20192;-88
2021/07/01 02:37:59;;;;;;;6.10;5.37;;;14.50;99.90;;;;;;5025002;28;20189;-87
2021/07/01 02:40:25;;;;;;;6.40;5.57;;;14.30;99.90;;;;;;5025143;28;20667;-88
2021/07/01 02:42:50;;;;;;;5.93;5.10;;;14.40;99.90;;;;;;4991285;28;20216;-87
2021/07/01 02:45:16;;;;;;;8.17;5.50;;;14.40;99.90;;;;;;5025458;28;20185;-88
2021/07/01 02:47:42;;;;;;;7.20;5.03;;;14.40;99.90;;;;;;5016963;28;20224;-92
2021/07/01 02:50:10;;;;;;;5.70;4.80;;;14.50;99.90;;;;;;5016584;28;20270;-89
2021/07/01 02:52:36;;;;;;;5.27;4.77;;;14.50;99.90;;;;;;5005549;28;20188;-89
2021/07/01 02:55:02;;;;;;;5.17;4.57;;;14.60;99.90;;;;;;5005608;28;20175;-89
2021/07/01 02:57:28;;;;;;;5.30;4.80;;;14.60;99.90;;;;;;5004338;28;20177;-93
2021/07/01 02:59:53;;;;;;;5.50;5.00;;;14.50;99.90;;;;;;5019226;28;20208;-89
2021/07/01 03:02:19;;;;;;;5.87;4.80;;;14.60;99.90;;;;;;5004609;28;20183;-89
2021/07/01 03:04:44;;;;;;;7.43;5.40;;;14.60;99.90;;;;;;4992403;28;20201;-92
2021/07/01 03:07:10;;;;;;;6.27;4.90;;;14.60;99.90;;;;;;5000159;28;20213;-89
2021/07/01 03:09:36;;;;;;;6.30;5.00;;;14.60;99.90;;;;;;5017539;28;20225;-89
2021/07/01 03:12:01;;;;;;;5.67;5.17;;;14.50;99.90;;;;;;4987646;28;20644;-89
2021/07/01 03:14:27;;;;;;;5.20;4.77;;;14.50;99.90;;;;;;4986841;28;20183;-89
2021/07/01 03:16:53;;;;;;;7.17;5.37;;;14.60;99.90;;;;;;5003066;28;20806;-90
2021/07/01 03:19:18;;;;;;;4.67;4.27;;;14.70;99.90;;;;;;5003653;28;20214;-89
2021/07/01 03:21:44;;;;;;;5.60;5.10;;;14.60;99.90;;;;;;5003906;28;20188;-90
2021/07/01 03:24:09;;;;;;;5.13;4.67;;;14.70;99.90;;;;;;5004307;28;20203;-89
2021/07/01 03:26:35;;;;;;;5.53;5.03;;;14.70;99.90;;;;;;4986155;28;20238;-89
2021/07/01 03:29:01;;;;;;;7.93;4.80;;;14.70;99.90;;;;;;5003515;28;20293;-90
2021/07/01 03:31:26;;;;;;;5.17;4.77;;;14.70;99.90;;;;;;4985932;28;20186;-89
2021/07/01 03:33:52;;;;;;;7.40;5.27;;;14.60;99.90;;;;;;4985823;28;20538;-90
2021/07/01 03:36:18;;;;;;;7.00;4.97;;;14.70;99.90;;;;;;4986014;28;20195;-89
2021/07/01 03:38:43;;;;;;;5.13;4.63;;;14.70;99.40;;;;;;5002322;28;20206;-89
2021/07/01 03:41:09;;;;;;;7.33;5.20;;;14.70;99.50;;;;;;5003223;28;20197;-89
2021/07/01 03:43:40;;;;;;;5.90;5.30;;;14.60;99.90;;;;;;4985391;28;20266;-90
2021/07/01 03:46:07;;;;;;;5.17;4.77;;;14.60;99.90;;;;;;4985884;28;20213;-89
2021/07/01 03:48:33;;;;;;;6.50;5.40;;;14.50;99.70;;;;;;4985531;28;20209;-90
2021/07/01 03:50:59;;;;;;;5.80;5.20;;;14.50;99.90;;;;;;4985332;28;20175;-90
2021/07/01 03:53:24;;;;;;;6.50;5.90;;;14.50;99.90;;;;;;5003089;28;20174;-88
2021/07/01 03:55:50;;;;;;;5.63;5.13;;;14.60;99.90;;;;;;5002819;28;20189;-89
2021/07/01 03:58:16;;;;;;;6.30;5.80;;;14.50;99.90;;;;;;5002517;28;20207;-88
2021/07/01 04:00:42;;;;;;;6.30;5.70;;;14.50;99.90;;;;;;4968946;28;20263;-89
2021/07/01 04:03:07;;;;;;;5.73;5.23;;;14.50;99.90;;;;;;5002810;28;20245;-89
2021/07/01 04:05:33;;;;;;;6.43;5.83;;;14.60;99.90;;;;;;5002831;28;20209;-90
2021/07/01 04:07:58;;;;;;;6.17;5.67;;;14.60;99.90;;;;;;5002761;28;20206;-89
2021/07/01 04:10:24;;;;;;;5.70;5.10;;;14.60;99.90;;;;;;5002381;28;20219;-88
2021/07/01 04:12:50;;;;;;;7.97;5.17;;;14.50;99.90;;;;;;4984837;28;20807;-90
2021/07/01 04:15:15;;;;;;;6.10;5.60;;;14.50;99.90;;;;;;4985649;28;20719;-89
2021/07/01 04:17:42;;;;;;;12.40;5.90;;;14.50;99.90;;;;;;5003204;28;20674;-91
2021/07/01 04:20:08;;;;;;;7.77;5.53;;;14.60;99.90;;;;;;5002366;28;20272;-90
2021/07/01 04:22:34;;;;;;;6.40;5.80;;;14.70;99.90;;;;;;4984896;28;20225;-89
2021/07/01 04:25:00;;;;;;;5.57;5.03;;;14.70;99.90;;;;;;4984697;28;20213;-89
2021/07/01 04:27:25;;;;;;;6.53;5.07;;;14.70;99.90;;;;;;4990764;28;20209;-91
2021/07/01 04:29:52;;;;;;;5.23;4.73;;;14.70;99.90;;;;;;5021924;28;20195;-89
2021/07/01 04:32:17;;;;;;;7.10;5.10;;;14.70;99.20;;;;;;5021809;28;20185;-91
2021/07/01 04:34:43;;;;;;;8.73;5.40;;;14.60;99.90;;;;;;5022648;28;20179;-90
2021/07/01 04:37:09;;;;;;;6.63;4.67;;;14.60;99.90;;;;;;5008552;28;20178;-90
2021/07/01 04:39:35;;;;;;;6.27;5.20;;;14.60;99.90;;;;;;5013386;28;20206;-88
2021/07/01 04:42:00;;;;;;;4.77;4.37;;;14.70;99.90;;;;;;5006167;28;20199;-89
2021/07/01 04:44:26;;;;;;;5.20;4.70;;;14.70;99.90;;;;;;5005098;28;20195;-88
2021/07/01 04:46:52;;;;;;;5.67;5.07;;;14.80;99.20;;;;;;5005305;28;20681;-90
2021/07/01 04:49:18;;;;;;;5.93;4.57;;;14.70;99.40;;;;;;4988115;28;20211;-90
2021/07/01 04:51:44;;;;;;;6.37;5.10;;;14.70;99.60;;;;;;4987800;28;20587;-90
2021/07/01 04:54:10;;;;;;;5.73;5.13;;;14.70;99.40;;;;;;5005737;28;20188;-89
2021/07/01 04:56:46;;;;;;;5.13;4.60;;;14.70;99.30;;;;;;4987044;28;20198;-89
2021/07/01 04:59:11;;;;;;;4.63;4.23;;;14.70;98.90;;;;;;4987568;28;20213;-90
2021/07/01 05:01:38;;;;;;;4.93;4.43;;;14.80;99.00;;;;;;5024476;28;20583;-89
2021/07/01 05:04:06;;;;;;;5.23;4.53;;;14.80;98.80;;;;;;5025081;28;20282;-90
2021/07/01 05:06:32;;;;;;;5.43;4.30;;;14.80;98.40;;;;;;5007149;28;20217;-89
2021/07/01 05:08:58;;;;;;;5.13;4.60;;;14.80;98.20;;;;;;5024747;28;20612;-88
2021/07/01 05:11:23;;;;;;;5.27;4.83;;;14.80;98.70;;;;;;4991421;28;20578;-88
2021/07/01 05:13:49;;;;;;;6.63;5.23;;;14.80;98.30;;;;;;5007492;28;20205;-89
2021/07/01 05:16:15;;;;;;;7.47;5.10;;;14.80;98.10;;;;;;4991296;28;20191;-90
2021/07/01 05:18:40;;;;;;;7.43;5.10;;;14.80;98.70;;;;;;4984908;28;20205;-88
2021/07/01 05:21:06;;;;;;;7.63;5.00;;;14.80;97.80;;;;;;5004302;28;20210;-88
2021/07/01 05:23:32;;;;;;;5.80;4.93;;;14.90;98.60;;;;;;4986089;28;20187;-89
2021/07/01 05:25:57;;;;;;;5.30;4.80;;;14.90;98.10;;;;;;4969892;28;20241;-89
2021/07/01 05:28:23;;;;;;;5.73;5.00;;;14.80;99.20;;;;;;4986523;28;20178;-90
2021/07/01 05:30:50;;;;;;;5.20;4.53;;;14.90;98.80;;;;;;5004155;28;20565;-88
2021/07/01 05:33:15;;;;;;;4.80;4.33;;;15.00;97.70;;;;;;4981948;28;20279;-89
2021/07/01 05:35:41;;;;;;;5.67;4.13;;;15.10;97.80;;;;;;4983145;28;20624;-91
2021/07/01 05:38:07;;;;;;;6.37;4.30;;;15.10;97.30;;;;;;5001160;28;20185;-89
2021/07/01 05:40:33;;;;;;;6.10;4.50;;;15.10;96.40;;;;;;5019082;28;20209;-89
2021/07/01 05:42:59;;;;;;;5.63;5.13;;;15.00;97.00;;;;;;5004611;28;20192;-88
2021/07/01 05:45:25;;;;;;;4.93;4.43;;;15.10;96.50;;;;;;5012643;28;20175;-88
2021/07/01 05:47:51;;;;;;;8.30;4.87;;;15.20;96.30;;;;;;4994413;28;20244;-90
2021/07/01 05:50:16;;;;;;;5.10;4.40;;;15.10;97.50;;;;;;4973914;28;20233;-88
2021/07/01 05:52:43;;;;;;;5.03;4.40;;;15.20;96.30;;;;;;4988761;28;20356;-89
2021/07/01 05:55:10;;;;;;;7.33;4.57;;;15.10;95.90;;;;;;4989268;28;20185;-90
2021/07/01 05:57:36;;;;;;;6.27;5.37;;;15.20;95.20;;;;;;5004709;28;20192;-90
2021/07/01 06:00:04;;;;;;;9.17;4.93;;;15.20;95.30;;;;;;5005449;28;20221;-88
2021/07/01 06:02:30;;;;;;;6.10;5.33;;;15.30;95.30;;;;;;5003024;28;20190;-88
2021/07/01 06:04:56;;;;;;;6.40;4.70;;;15.30;94.80;;;;;;5003331;28;20224;-88
2021/07/01 06:07:25;;;;;;;5.67;4.57;;;15.30;95.90;;;;;;5000621;28;20569;-88
2021/07/01 06:10:01;;;;;;;5.93;5.13;;;15.30;95.00;;;;;;5017228;28;20699;-88
2021/07/01 06:12:30;;;;;;;5.27;4.83;;;15.30;94.80;;;;;;5012614;28;20176;-88
2021/07/01 06:14:58;;;;;;;8.10;5.40;;;15.30;95.10;;;;;;4999221;28;20271;-86
2021/07/01 06:17:28;;;;;;;5.17;4.57;;;15.40;94.90;;;;;;5015920;28;20186;-87
2021/07/01 06:19:54;;;;;;;5.83;5.33;;;15.50;94.40;;;;;;5007238;28;20633;-88
2021/07/01 06:22:23;;;;;;;7.33;4.90;;;15.60;94.10;;;;;;5010589;28;20244;-88
2021/07/01 06:24:56;;;;;;;5.57;5.00;;;15.60;94.10;;;;;;5015615;28;20249;-89
2021/07/01 06:30:04;;;;;;;4.73;4.33;;;15.90;93.50;;;;;;5016402;28;20258;-86
2021/07/01 06:32:37;;;;;;;5.60;5.10;;;16.00;93.20;;;;;;5016373;28;20198;-90
2021/07/01 06:35:03;;;;;;;5.33;4.80;;;15.90;93.30;;;;;;5009490;28;20261;-88
2021/07/01 06:37:33;;;;;;;5.40;4.90;;;15.90;91.50;;;;;;4999597;28;20680;-89
2021/07/01 06:40:01;;;;;;;6.47;5.40;;;15.80;92.80;;;;;;5013942;28;20211;-89
2021/07/01 06:42:27;;;;;;;5.83;5.10;;;15.80;93.20;;;;;;5018950;28;20593;-87
2021/07/01 06:44:54;;;;;;;6.40;5.80;;;15.80;93.40;;;;;;5014542;28;20197;-88
2021/07/01 06:47:21;;;;;;;6.37;4.97;;;16.00;93.00;;;;;;5006203;28;20738;-87
2021/07/01 06:49:50;;;;;;;5.30;4.80;;;16.10;91.50;;;;;;5001491;28;20205;-87
2021/07/01 06:52:16;;;;;;;7.17;5.97;;;16.10;90.90;;;;;;4992908;28;20720;-87
2021/07/01 06:54:43;;;;;;;5.93;5.40;;;16.00;91.80;;;;;;5009634;28;20211;-88
2021/07/01 06:57:09;;;;;;;12.27;5.20;;;16.10;91.50;;;;;;5010701;28;20216;-87
2021/07/01 06:59:36;;;;;;;6.07;5.10;;;16.20;90.70;;;;;;4996827;28;20206;-87
2021/07/01 07:02:02;;;;;;;5.73;5.13;;;16.00;90.00;;;;;;5015035;28;20216;-87
2021/07/01 07:04:32;;;;;;;5.67;4.87;;;15.90;92.30;;;;;;5017196;28;20192;-88
2021/07/01 07:06:58;;;;;;;6.63;5.10;;;15.80;91.60;;;;;;5019949;28;20565;-88
2021/07/01 07:09:24;;;;;;;6.93;5.20;;;15.70;92.30;;;;;;5011193;28;20227;-89
2021/07/01 07:11:50;;;;;;;5.77;4.90;;;15.70;92.10;;;;;;5016001;28;20377;-87
2021/07/01 07:14:17;;;;;;;6.57;4.63;;;15.80;90.70;;;;;;5017171;28;20224;-87
2021/07/01 07:16:45;;;;;;;8.27;5.70;;;15.80;93.00;;;;;;4991395;28;20770;-88
2021/07/01 07:19:12;;;;;;;7.03;5.43;;;15.80;92.20;;;;;;5008776;28;20220;-87
2021/07/01 07:21:44;;;;;;;5.40;4.90;;;15.70;94.10;;;;;;5014597;28;20257;-87
2021/07/01 07:24:14;;;;;;;5.73;5.23;;;15.80;94.70;;;;;;5011253;28;20190;-87
2021/07/01 07:26:41;;;;;;;5.47;4.97;;;15.90;93.60;;;;;;4995730;28;20578;-87
2021/07/01 07:29:09;;;;;;;7.00;5.97;;;15.90;92.90;;;;;;4994637;28;20271;-87
2021/07/01 07:31:39;;;;;;;6.07;5.47;;;16.00;93.40;;;;;;5010429;28;20270;-88
2021/07/01 07:34:05;;;;;;;7.40;6.10;;;16.10;92.90;;;;;;5012213;28;20213;-89
2021/07/01 07:36:33;;;;;;;6.00;5.47;;;16.10;93.80;;;;;;5000448;28;20207;-87
2021/07/01 07:38:59;;;;;;;6.00;5.50;;;16.00;90.50;;;;;;5004752;28;20216;-88
2021/07/01 07:41:25;;;;;;;6.23;5.67;;;16.00;91.30;;;;;;5007712;28;20186;-88
2021/07/01 07:43:53;;;;;;;6.47;5.77;;;16.10;90.50;;;;;;5007684;28;20215;-87
2021/07/01 07:46:22;;;;;;;7.47;5.37;;;16.10;90.40;;;;;;5005318;28;20209;-88
2021/07/01 07:48:49;;;;;;;5.33;4.83;;;16.20;89.80;;;;;;4999061;28;20209;-87
2021/07/01 07:51:16;;;;;;;7.90;5.50;;;16.20;90.50;;;;;;5014055;28;20193;-88
2021/07/01 07:53:47;;;;;;;6.70;5.67;;;16.20;90.40;;;;;;5014695;28;20190;-87
2021/07/01 07:56:15;;;;;;;6.60;5.43;;;16.30;91.10;;;;;;5018617;28;20660;-87
2021/07/01 07:58:46;;;;;;;6.20;5.53;;;16.50;90.10;;;;;;5013485;28;20710;-86
2021/07/01 08:01:12;;;;;;;6.33;5.47;;;16.50;89.20;;;;;;5013039;28;20186;-88
2021/07/01 08:03:40;;;;;;;5.77;5.20;;;16.40;89.10;;;;;;5013952;28;20687;-87
2021/07/01 08:06:07;;;;;;;6.97;5.47;;;16.50;88.30;;;;;;5017084;28;20218;-87
2021/07/01 08:08:41;;;;;;;5.63;5.10;;;16.70;87.80;;;;;;5009947;28;20272;-87
2021/07/01 08:11:09;;;;;;;6.50;5.90;;;16.80;88.60;;;;;;5014714;28;20210;-86
2021/07/01 08:13:36;;;;;;;6.30;5.70;;;16.70;88.20;;;;;;5015080;28;20191;-87
2021/07/01 08:16:04;;;;;;;6.17;5.63;;;16.70;87.70;;;;;;5011422;28;20201;-88
2021/07/01 08:18:30;;;;;;;5.97;5.47;;;16.70;88.60;;;;;;5011888;28;20186;-87
2021/07/01 08:20:56;;;;;;;5.83;5.30;;;16.90;88.40;;;;;;5007120;28;20751;-87
2021/07/01 08:23:22;;;;;;;7.97;5.93;;;16.90;87.50;;;;;;5003230;28;20190;-89
2021/07/01 08:25:48;;;;;;;6.40;5.57;;;17.10;88.10;;;;;;5001536;28;20184;-89
2021/07/01 08:28:22;;;;;;;5.43;4.97;;;17.00;86.40;;;;;;4996154;28;20196;-87
2021/07/01 08:30:49;;;;;;;7.53;5.53;;;16.90;86.00;;;;;;5000422;28;20225;-86
2021/07/01 08:33:19;;;;;;;5.40;4.80;;;16.70;85.80;;;;;;5004599;28;20247;-87
2021/07/01 08:35:50;;;;;;;5.67;5.13;;;16.80;85.10;;;;;;5022112;28;20175;-89
2021/07/01 08:38:16;;;;;;;5.30;4.20;;;16.80;87.30;;;;;;5022598;28;20194;-87
2021/07/01 08:40:47;;;;;;;4.30;4.00;;;16.80;85.20;;;;;;5008947;28;20720;-88
2021/07/01 08:43:16;;;;;;;5.27;4.77;;;16.80;84.70;;;;;;5012211;28;20202;-87
2021/07/01 08:46:13;;;;;;;4.90;4.50;;;16.70;87.30;;;;;;5008357;28;20272;-87
2021/07/01 08:48:52;;;;;;;5.87;5.30;;;16.70;87.20;;;;;;5006862;28;20292;-88
2021/07/01 08:51:26;;;;;;;5.43;4.77;;;16.40;89.40;;;;;;5010669;28;20197;-87
2021/07/01 08:54:06;;;;;;;9.70;4.17;;;16.40;88.80;;;;;;5010651;28;20186;-87
2021/07/01 08:56:35;;;;;;;4.63;4.30;;;16.60;86.60;;;;;;5007767;28;20216;-87
2021/07/01 08:59:05;;;;;;;4.40;4.10;;;16.70;87.60;;;;;;5002818;28;20206;-88
2021/07/01 09:01:30;;;;;;;4.47;4.07;;;16.80;87.10;;;;;;5003390;28;20186;-89
2021/07/01 09:03:58;;;;;;;5.87;4.40;;;16.80;86.80;;;;;;5003106;28;20194;-87
2021/07/01 09:06:26;;;;;;;4.70;3.87;;;16.70;84.40;;;;;;5003037;28;20236;-85
2021/07/01 09:08:53;;;;;;;4.00;3.70;;;16.60;85.10;;;;;;5000985;28;20238;-87
2021/07/01 09:11:21;;;;;;;5.70;4.63;;;16.60;85.50;;;;;;5012883;28;20189;-89
2021/07/01 09:13:49;;;;;;;4.30;3.90;;;16.40;86.80;;;;;;5023675;28;20174;-86
2021/07/01 09:16:17;;;;;;;5.77;4.50;;;16.30;88.20;;;;;;5007644;28;20664;-88
2021/07/01 09:18:45;;;;;;;5.13;4.70;;;16.10;89.60;;;;;;5002231;28;20233;-87
2021/07/01 09:21:13;;;;;;;5.73;4.60;;;15.90;90.70;;;;;;5010533;28;20197;-86
2021/07/01 09:23:49;;;;;;;5.40;5.00;;;15.90;92.20;;;;;;4995992;28;20235;-87
2021/07/01 09:26:23;;;;;;;5.67;5.10;;;15.80;91.50;;;;;;5012060;28;20205;-87
2021/07/01 09:28:49;;;;;;;5.50;5.00;;;15.70;91.50;;;;;;4996531;28;20232;-87
2021/07/01 09:31:21;;;;;;;6.30;4.97;;;15.70;94.30;;;;;;4962567;28;20224;-86
2021/07/01 09:33:49;;;;;;;5.73;5.13;;;15.90;95.10;;;;;;4995879;28;20166;-86
2021/07/01 09:36:18;;;;;;;5.73;5.23;;;15.80;93.30;;;;;;4980300;28;20232;-86
2021/07/01 09:38:45;;;;;;;5.50;5.00;;;15.90;94.90;;;;;;4991477;28;20214;-87
2021/07/01 09:41:12;;;;;;;6.93;5.43;;;15.80;94.20;;;;;;4970777;28;20207;-87
2021/07/01 09:43:46;;;;;;;4.97;4.57;;;16.00;93.70;;;;;;4987920;28;20228;-89
2021/07/01 09:46:22;;;;;;;5.20;4.70;;;16.00;92.00;;;;;;5015125;28;20232;-90
2021/07/01 09:48:50;;;;;;;6.70;5.00;;;16.10;91.30;;;;;;5013917;28;20196;-87
2021/07/01 09:51:17;;;;;;;4.87;4.47;;;16.00;91.20;;;;;;5010151;28;20182;-88
2021/07/01 09:53:48;;;;;;;5.93;4.73;;;16.00;91.20;;;;;;5013119;28;20189;-88
2021/07/01 09:56:20;;;;;;;5.20;4.80;;;16.00;92.10;;;;;;5014387;28;20505;-87
2021/07/01 09:58:50;;;;;;;4.57;4.17;;;16.00;92.50;;;;;;5015189;28;20806;-87
2021/07/01 10:01:28;;;;;;;5.97;4.57;;;16.10;92.60;;;;;;5015536;28;20213;-88
2021/07/01 10:03:59;;;;;;;5.87;4.97;;;16.20;93.20;;;;;;5019187;28;20174;-91
2021/07/01 10:06:25;;;;;;;6.10;5.23;;;16.20;91.70;;;;;;5000977;28;20676;-87
2021/07/01 10:08:51;;;;;;;5.20;4.77;;;16.30;92.00;;;;;;5018624;28;20244;-89
2021/07/01 10:11:42;;;;;;;6.33;5.73;;;16.40;91.20;;;;;;4972325;28;20196;-86
2021/07/01 10:14:16;;;;;;;5.97;5.47;;;16.40;92.60;;;;;;4990862;28;20181;-87
2021/07/01 10:16:42;;;;;;;5.70;5.00;;;16.40;93.60;;;;;;4988129;28;20190;-87
2021/07/01 10:19:09;;;;;;;6.33;5.80;;;16.50;93.30;;;;;;5015506;28;20267;-86
2021/07/01 10:21:37;;;;;;;6.17;4.87;;;16.50;90.20;;;;;;4991182;28;20228;-85
2021/07/01 10:24:19;;;;;;;9.13;5.80;;;16.30;91.50;;;;;;5006295;28;20191;-88
2021/07/01 10:26:48;;;;;;;5.27;4.83;;;16.40;91.60;;;;;;5007172;28;20281;-85
2021/07/01 10:29:16;;;;;;;5.13;4.73;;;16.40;91.70;;;;;;5016702;28;20636;-87
2021/07/01 10:32:04;;;;;;;6.53;5.43;;;16.40;89.00;;;;;;5004858;28;20191;-85
2021/07/01 10:34:30;;;;;;;6.00;5.40;;;16.40;91.90;;;;;;5015109;28;20203;-85
2021/07/01 10:37:11;;;;;;;5.67;5.17;;;16.60;90.40;;;;;;5010386;28;20348;-85
2021/07/01 10:39:39;;;;;;;5.23;4.73;;;16.40;90.50;;;;;;5019566;28;20207;-86
2021/07/01 10:42:06;;;;;;;4.90;4.47;;;16.50;90.10;;;;;;5024501;28;20212;-86
2021/07/01 10:44:32;;;;;;;4.70;4.30;;;16.50;89.60;;;;;;5012771;28;20192;-88
2021/07/01 10:46:57;;;;;;;5.00;4.50;;;16.50;89.60;;;;;;5010729;28;20274;-87
2021/07/01 10:49:34;;;;;;;5.10;4.60;;;16.50;89.40;;;;;;5008517;28;20712;-86
2021/07/01 10:52:01;;;;;;;5.57;5.07;;;16.40;89.20;;;;;;5000233;28;20212;-87
2021/07/01 10:54:27;;;;;;;5.43;4.60;;;16.50;90.80;;;;;;5012710;28;20193;-85
2021/07/01 10:57:01;;;;;;;6.10;5.07;;;16.70;88.10;;;;;;4976498;28;20196;-87
2021/07/01 10:59:53;;;;;;;6.47;5.27;;;16.90;87.50;;;;;;5015336;28;20217;-85
2021/07/01 11:02:23;;;;;;;5.50;5.00;;;17.00;88.80;;;;;;4997678;28;20187;-85
2021/07/01 11:04:55;;;;;;;5.97;4.37;;;17.00;88.30;;;;;;4994442;28;20229;-85
2021/07/01 11:07:21;;;;;;;4.87;4.47;;;17.00;84.90;;;;;;5018931;28;20222;-86
2021/07/01 11:09:52;;;;;;;5.10;4.60;;;17.10;86.40;;;;;;5004652;28;20229;-86
2021/07/01 11:12:20;;;;;;;5.37;4.63;;;17.40;84.80;;;;;;4973169;28;20182;-86
2021/07/01 11:14:48;;;;;;;4.37;4.00;;;17.60;86.10;;;;;;5013664;28;20180;-88
2021/07/01 11:17:14;;;;;;;4.33;3.93;;;17.60;81.00;;;;;;5019022;28;20200;-85
2021/07/01 11:19:45;;;;;;;3.83;3.50;;;17.60;79.80;;;;;;4991305;28;20811;-85
2021/07/01 11:22:13;;;;;;;4.33;4.03;;;17.60;79.00;;;;;;5020001;28;20196;-89
2021/07/01 11:24:43;;;;;;;4.33;3.93;;;17.70;80.30;;;;;;5028738;28;20209;-88
2021/07/01 11:27:11;;;;;;;4.10;3.80;;;18.00;78.50;;;;;;5006536;28;20310;-87
2021/07/01 11:29:46;;;;;;;4.10;3.70;;;18.30;77.90;;;;;;5013799;28;20241;-85
2021/07/01 11:32:27;;;;;;;4.30;3.90;;;18.70;77.00;;;;;;5006106;28;20218;-85
2021/07/01 11:34:55;;;;;;;5.17;3.43;;;18.80;73.00;;;;;;5019756;28;20192;-86
2021/07/01 11:37:36;;;;;;;6.40;4.30;;;18.80;74.10;;;;;;4999080;28;20202;-86
2021/07/01 11:40:18;;;;;;;5.82;4.15;;;18.60;76.90;;;;;;4994056;28;20226;-91
2021/07/01 11:42:45;;;;;;;4.68;4.28;;;18.50;78.70;;;;;;5028298;28;20199;-87
2021/07/01 11:45:11;;;;;;;7.50;4.83;;;18.40;74.90;;;;;;5021914;28;20254;-87
2021/07/01 11:47:37;;;;;;;5.07;4.57;;;18.20;78.20;;;;;;5025860;28;20218;-87
2021/07/01 11:50:05;;;;;;;6.27;5.67;;;18.00;78.10;;;;;;5011938;28;20214;-86
2021/07/01 11:52:32;;;;;;;7.73;4.47;;;18.00;78.50;;;;;;5029649;28;20194;-87
2021/07/01 11:55:01;;;;;;;4.63;3.97;;;17.90;78.70;;;;;;5011201;28;20641;-89
2021/07/01 11:57:31;;;;;;;4.47;4.17;;;17.90;78.70;;;;;;5004773;28;20188;-87
2021/07/01 11:59:57;;;;;;;4.60;4.20;;;17.70;81.70;;;;;;4997838;28;20241;-87
2021/07/01 12:02:23;;;;;;;4.40;4.00;;;17.70;80.60;;;;;;5022942;28;20195;-88
2021/07/01 12:04:50;;;;;;;4.53;4.17;;;17.70;80.20;;;;;;5023318;28;20189;-88
2021/07/01 12:07:21;;;;;;;4.27;3.97;;;17.60;81.50;;;;;;5009199;28;20275;-89
2021/07/01 12:09:48;;;;;;;4.33;3.70;;;17.70;80.80;;;;;;5004814;28;20224;-87
2021/07/01 12:12:32;;;;;;;4.00;3.53;;;17.60;79.80;;;;;;5022770;28;20249;-86
2021/07/01 12:15:05;;;;;;;7.57;3.93;;;17.70;80.50;;;;;;5021227;28;20176;-86
2021/07/01 12:17:55;;;;;;;3.60;3.30;;;17.70;81.20;;;;;;5010508;28;20215;-86
2021/07/01 12:20:36;;;;;;;4.60;3.43;;;17.70;80.30;;;;;;5013602;28;20232;-87
2021/07/01 12:23:21;;;;;;;3.87;3.57;;;17.70;80.10;;;;;;5012379;28;20217;-87
2021/07/01 12:25:55;;;;;;;3.87;3.57;;;17.70;78.70;;;;;;5014888;28;20199;-88
2021/07/01 12:28:24;;;;;;;4.10;3.53;;;17.80;79.00;;;;;;5022058;28;20201;-87
2021/07/01 12:31:06;;;;;;;3.47;3.28;;;17.90;78.80;;;;;;5016354;28;20208;-86
2021/07/01 12:33:45;;;;;;;3.65;3.35;;;18.10;77.00;;;;;;5010984;28;20193;-86
2021/07/01 12:36:20;;;;;;;3.78;3.47;;;18.30;77.20;;;;;;5017019;28;20568;-86
2021/07/01 12:39:08;;;;;;;4.13;3.47;;;18.20;76.30;;;;;;5015860;28;20289;-86
2021/07/01 12:42:03;;;;;;;4.23;3.47;;;18.40;77.30;;;;;;5015302;28;20195;-86
2021/07/01 12:44:37;;;;;;;3.83;3.53;;;18.40;76.00;;;;;;4976829;28;20211;-87
2021/07/01 12:47:06;;;;;;;3.60;3.30;;;18.40;76.30;;;;;;4999250;28;20470;-90
2021/07/01 12:49:33;;;;;;;3.70;3.40;;;18.40;75.80;;;;;;4973116;28;20241;-89
2021/07/01 12:52:12;;;;;;;4.70;3.72;;;18.40;76.80;;;;;;4988810;28;20764;-89
2021/07/01 12:54:37;;;;;;;4.32;3.50;;;18.30;74.40;;;;;;4989450;28;20179;-89
2021/07/01 12:57:11;;;;;;;3.53;3.25;;;18.40;75.60;;;;;;5006796;28;20192;-88
2021/07/01 12:59:45;;;;;;;4.93;3.58;;;18.70;75.90;;;;;;5006767;28;20252;-87